Terminal Aerodrome Forecast
Issued by NWS

Home | Current Version | Previous Version | Text Only | Print | Product List | Glossary On
Versions: 1 2 3 4 5 6 7 8 9 10 11 12 13 14 15 16 17 18 19 20 21 22 23
212
FTUS45 KGJT 172341
TAFDRO
TAF
KDRO 172341Z 1800/1824 25014KT P6SM VCSH SCT025 BKN100
     FM180200 28020G36KT P6SM VCSH SCT030 BKN060
     FM180400 27015G26KT P6SM VCSH SCT060 BKN080
     FM180600 28015G27KT P6SM FEW070 FEW130
     FM181000 28010G19KT P6SM SKC
     FM181200 28005KT P6SM SKC=

USA.gov is the U.S. government's official web portal to all federal, state and local government web resources and services.